createdAt,value
2024-04-30T00:05:07.391Z,67.59
2024-04-30T00:10:12.454Z,68.56
2024-04-30T00:15:18.190Z,68.88
2024-04-30T00:20:25.667Z,69.35
2024-04-30T00:25:30.482Z,68.91
2024-04-30T00:30:35.313Z,69.27
2024-04-30T00:35:42.619Z,69.78
2024-04-30T00:40:47.501Z,69.59
2024-04-30T00:45:52.319Z,70.90
2024-04-30T00:51:00.138Z,70.49
2024-04-30T00:56:05.482Z,71.24
2024-04-30T01:01:10.243Z,71.19
2024-04-30T01:06:17.621Z,72.02
2024-04-30T01:11:22.556Z,72.10
2024-04-30T01:16:27.235Z,73.17
2024-04-30T01:21:34.599Z,73.16
2024-04-30T01:26:41.896Z,73.06
2024-04-30T01:31:46.537Z,73.47
2024-04-30T01:36:51.200Z,72.96
2024-04-30T01:41:58.565Z,73.16
2024-04-30T01:47:03.307Z,73.15
2024-04-30T01:52:08.575Z,74.00
2024-04-30T01:57:15.934Z,72.84
2024-04-30T02:02:20.723Z,73.05
2024-04-30T02:07:25.845Z,72.95
2024-04-30T02:12:33.196Z,73.97
2024-04-30T02:17:38.047Z,74.21
2024-04-30T02:22:42.848Z,74.53
2024-04-30T02:27:50.351Z,74.24
2024-04-30T02:33:10.737Z,75.56
2024-04-30T02:38:15.477Z,74.94
2024-04-30T02:43:22.822Z,73.71
2024-04-30T02:48:28.678Z,75.36
2024-04-30T02:53:33.438Z,74.71
2024-04-30T02:58:41.209Z,74.79
2024-04-30T03:03:46.638Z,75.03
2024-04-30T03:08:51.674Z,74.29
2024-04-30T03:13:58.993Z,74.21
2024-04-30T03:19:03.748Z,75.45
2024-04-30T03:24:08.908Z,75.42
2024-04-30T03:29:16.646Z,76.33
2024-04-30T03:34:22.489Z,76.73
2024-04-30T03:39:27.387Z,77.43
2024-04-30T03:44:34.690Z,78.67
2024-04-30T03:49:40.854Z,78.47
2024-04-30T03:54:45.518Z,77.97
2024-04-30T03:59:52.873Z,77.62
2024-04-30T04:04:57.748Z,76.93
2024-04-30T04:10:02.578Z,74.84
2024-04-30T04:15:11.060Z,75.28
2024-04-30T04:20:15.855Z,73.32
2024-04-30T04:25:20.625Z,73.40
2024-04-30T04:30:27.983Z,72.49
2024-04-30T04:35:32.671Z,72.61
2024-04-30T04:40:37.412Z,72.40
2024-04-30T04:45:44.841Z,71.78
2024-04-30T04:50:49.683Z,71.19
2024-04-30T04:55:54.387Z,71.60
2024-04-30T05:01:01.884Z,70.65
2024-04-30T05:06:07.276Z,70.17
2024-04-30T05:11:15.357Z,69.72
2024-04-30T05:16:22.792Z,67.75
2024-04-30T05:21:27.716Z,67.39
2024-04-30T05:26:32.412Z,66.32
2024-04-30T05:31:42.467Z,65.49
2024-04-30T05:36:47.224Z,65.21
2024-04-30T05:41:51.873Z,64.09
2024-04-30T05:46:59.767Z,63.09
2024-04-30T05:52:04.656Z,61.76
2024-04-30T05:57:09.373Z,61.18
2024-04-30T06:02:16.688Z,59.45
2024-04-30T06:07:21.576Z,58.52
2024-04-30T06:12:26.415Z,58.91
2024-04-30T06:17:33.889Z,59.02
2024-04-30T06:22:38.720Z,56.79
2024-04-30T06:27:43.487Z,55.04
2024-04-30T06:32:50.968Z,53.84
2024-04-30T06:37:56.335Z,50.98
2024-04-30T06:43:01.065Z,49.51
2024-04-30T06:48:11.048Z,47.49
2024-04-30T06:53:15.955Z,46.17
2024-04-30T06:58:20.696Z,43.19
2024-04-30T07:03:28.010Z,41.42
2024-04-30T07:08:32.764Z,40.42
2024-04-30T07:13:37.512Z,38.20
2024-04-30T07:18:47.017Z,36.22
2024-04-30T07:23:51.739Z,35.51
2024-04-30T07:28:56.526Z,31.85
2024-04-30T07:34:04.520Z,31.26
2024-04-30T07:39:09.350Z,28.76
2024-04-30T07:44:14.270Z,27.02
2024-04-30T07:49:21.678Z,25.74
2024-04-30T07:54:26.468Z,26.00
2024-04-30T07:59:31.189Z,24.58
2024-04-30T08:04:38.931Z,24.09
2024-04-30T08:09:44.697Z,22.47
2024-04-30T08:14:49.611Z,21.45
2024-04-30T08:19:57.196Z,22.41
2024-04-30T08:25:01.904Z,21.15
2024-04-30T08:30:06.904Z,21.45
2024-04-30T08:35:14.742Z,22.59
2024-04-30T08:40:19.585Z,22.06
2024-04-30T08:45:25.639Z,21.05
2024-04-30T08:50:35.380Z,20.33
2024-04-30T08:55:43.088Z,19.82
2024-04-30T09:00:48.327Z,18.87
2024-04-30T09:05:57.216Z,18.94
2024-04-30T09:11:01.999Z,18.29
2024-04-30T09:16:10.520Z,19.23
2024-04-30T09:21:26.485Z,18.58
2024-04-30T09:26:31.199Z,18.36
2024-04-30T09:31:39.998Z,18.22
2024-04-30T09:36:47.526Z,18.35
2024-04-30T09:41:53.382Z,18.68
2024-04-30T09:46:58.561Z,19.13
2024-04-30T09:52:07.197Z,18.74
2024-04-30T09:57:14.302Z,18.77
2024-04-30T10:02:21.000Z,17.36
2024-04-30T10:07:29.748Z,18.77
2024-04-30T10:12:34.474Z,17.87
2024-04-30T10:17:43.572Z,17.63
2024-04-30T10:22:51.099Z,17.68
2024-04-30T10:28:07.920Z,18.61
2024-04-30T10:33:12.925Z,19.08
2024-04-30T10:38:20.459Z,21.03
2024-04-30T10:43:25.734Z,22.00
2024-04-30T10:48:30.571Z,21.10
2024-04-30T10:53:38.203Z,20.93
2024-04-30T10:58:54.280Z,20.42
2024-04-30T11:04:10.019Z,20.54
2024-04-30T11:09:18.809Z,20.38
2024-04-30T11:14:24.713Z,20.35
2024-04-30T11:19:29.494Z,19.15
2024-04-30T11:24:37.214Z,20.14
2024-04-30T11:29:42.103Z,19.58
2024-04-30T11:34:49.648Z,18.80
2024-04-30T11:39:57.301Z,19.42
2024-04-30T11:45:03.558Z,19.93
2024-04-30T11:50:09.545Z,20.79
2024-04-30T11:55:17.251Z,19.15
2024-04-30T12:00:22.774Z,19.89
2024-04-30T12:05:27.540Z,18.97
2024-04-30T12:10:36.471Z,19.26
2024-04-30T12:15:41.208Z,19.91
2024-04-30T12:20:45.908Z,19.47
2024-04-30T12:25:53.312Z,18.76
2024-04-30T12:30:58.061Z,19.09
2024-04-30T12:36:02.820Z,18.94
2024-04-30T12:41:10.210Z,18.92
2024-04-30T12:46:14.903Z,19.21
2024-04-30T12:51:19.716Z,19.73
2024-04-30T12:56:27.113Z,20.00
2024-04-30T13:01:31.945Z,22.21
2024-04-30T13:06:41.350Z,23.30
2024-04-30T13:11:48.727Z,22.71
2024-04-30T13:16:53.428Z,23.14
2024-04-30T13:21:58.110Z,23.99
2024-04-30T13:27:05.438Z,23.99
2024-04-30T13:32:10.410Z,24.77
2024-04-30T13:37:15.315Z,24.62
2024-04-30T13:42:22.803Z,24.25
2024-04-30T13:47:27.773Z,23.98
2024-04-30T13:52:34.975Z,23.47
2024-04-30T13:57:44.535Z,24.38
2024-04-30T14:02:49.465Z,23.97
2024-04-30T14:07:54.314Z,24.15
2024-04-30T14:13:02.396Z,25.05
2024-04-30T14:18:07.998Z,25.00
2024-04-30T14:23:12.903Z,25.18
2024-04-30T14:28:24.298Z,24.46
2024-04-30T14:33:29.104Z,25.18
2024-04-30T14:38:34.150Z,25.87
2024-04-30T14:43:41.736Z,25.67
2024-04-30T14:48:46.526Z,25.98
2024-04-30T14:53:51.287Z,25.24
2024-04-30T14:58:58.675Z,25.71
2024-04-30T15:04:03.495Z,26.08
2024-04-30T15:09:11.440Z,25.92
2024-04-30T15:14:18.806Z,26.22
2024-04-30T15:19:23.596Z,26.09
2024-04-30T15:24:28.492Z,26.13
2024-04-30T15:29:35.988Z,26.65
2024-04-30T15:34:42.222Z,26.49
2024-04-30T15:39:47.837Z,27.00
2024-04-30T15:44:55.218Z,26.87
2024-04-30T15:49:59.901Z,27.89
2024-04-30T15:55:04.703Z,28.42
2024-04-30T16:00:13.306Z,28.58
2024-04-30T16:05:18.028Z,28.94
2024-04-30T16:10:22.899Z,28.56
2024-04-30T16:15:31.147Z,28.79
2024-04-30T16:20:37.762Z,28.83
2024-04-30T16:25:44.905Z,29.24
2024-04-30T16:30:52.692Z,29.40
2024-04-30T16:35:57.482Z,29.97
2024-04-30T16:41:02.208Z,30.70
2024-04-30T16:46:09.611Z,30.38
2024-04-30T16:51:16.252Z,31.14
2024-04-30T16:56:21.108Z,31.30
2024-04-30T17:01:28.564Z,33.23
2024-04-30T17:06:33.823Z,33.17
2024-04-30T17:11:38.664Z,33.45
2024-04-30T17:16:46.542Z,33.50
2024-04-30T17:21:51.703Z,33.53
2024-04-30T17:26:57.561Z,33.67
2024-04-30T17:32:05.119Z,33.48
2024-04-30T17:37:10.215Z,33.35
2024-04-30T17:42:15.069Z,33.67
2024-04-30T17:47:22.738Z,33.80
2024-04-30T17:52:31.164Z,33.97
2024-04-30T17:57:37.788Z,33.89
2024-04-30T18:02:45.153Z,34.16
2024-04-30T18:07:49.851Z,34.39
2024-04-30T18:12:54.597Z,34.56
2024-04-30T18:18:02.117Z,34.48
2024-04-30T18:23:07.207Z,34.59
2024-04-30T18:28:11.921Z,35.16
2024-04-30T18:33:19.485Z,35.24
2024-04-30T18:38:24.331Z,34.85
2024-04-30T18:43:29.041Z,35.07
2024-04-30T18:48:36.570Z,35.41
2024-04-30T18:53:42.145Z,35.48
2024-04-30T18:58:47.714Z,36.01
2024-04-30T19:03:55.317Z,35.92
2024-04-30T19:09:00.141Z,35.80
2024-04-30T19:14:04.816Z,36.35
2024-04-30T19:19:18.135Z,36.54
2024-04-30T19:24:24.613Z,36.50
2024-04-30T19:29:30.309Z,36.34
2024-04-30T19:34:37.921Z,36.75
2024-04-30T19:39:42.842Z,37.30
2024-04-30T19:44:47.595Z,37.76
2024-04-30T19:49:55.073Z,37.04
2024-04-30T19:55:00.085Z,37.05
2024-04-30T20:00:05.999Z,36.83
2024-04-30T20:05:13.803Z,36.16
2024-04-30T20:10:18.805Z,36.40
2024-04-30T20:15:23.603Z,36.82
2024-04-30T20:20:30.931Z,37.63
2024-04-30T20:25:35.684Z,37.75
2024-04-30T20:30:40.501Z,38.30
2024-04-30T20:35:47.924Z,38.94
2024-04-30T20:40:52.852Z,39.32
2024-04-30T20:45:57.917Z,40.19
2024-04-30T20:51:06.437Z,40.62
2024-04-30T20:56:11.591Z,40.79
2024-04-30T21:01:17.658Z,41.09
2024-04-30T21:06:25.159Z,40.64
2024-04-30T21:11:30.213Z,41.16
2024-04-30T21:16:39.453Z,41.41
2024-04-30T21:21:46.958Z,42.25
2024-04-30T21:26:51.807Z,43.30
2024-04-30T21:31:56.707Z,43.66
2024-04-30T21:37:04.286Z,43.71
2024-04-30T21:42:09.121Z,42.73
2024-04-30T21:47:15.563Z,43.28
2024-04-30T21:52:23.032Z,43.38
2024-04-30T21:57:27.876Z,42.33
2024-04-30T22:02:32.619Z,41.65
2024-04-30T22:07:40.095Z,40.82
2024-04-30T22:12:44.845Z,41.61
2024-04-30T22:17:49.890Z,42.16
2024-04-30T22:22:57.357Z,42.61
2024-04-30T22:28:02.163Z,42.01
2024-04-30T22:33:07.221Z,41.73
2024-04-30T22:38:14.599Z,43.38
2024-04-30T22:43:19.349Z,43.72
2024-04-30T22:48:24.287Z,44.51
2024-04-30T22:53:40.722Z,44.69
2024-04-30T22:58:52.342Z,44.38
2024-04-30T23:03:57.204Z,45.01
2024-04-30T23:09:04.831Z,44.97
2024-04-30T23:14:09.605Z,45.32
2024-04-30T23:19:14.378Z,46.15
2024-04-30T23:24:21.905Z,46.08
2024-04-30T23:29:27.944Z,45.93
2024-04-30T23:34:32.991Z,46.67
2024-04-30T23:39:40.517Z,46.81
2024-04-30T23:44:45.334Z,47.54
2024-04-30T23:49:50.071Z,47.93
2024-04-30T23:54:57.570Z,48.53
